sensor_id;sensor_type;location;lat;lon;timestamp;pressure;altitude;pressure_sealevel;temperature;humidity
58785;BME280;44557;51.862;19.378;2022-08-03T00:00:41;99519.30;;;20.15;70.40
58785;BME280;44557;51.862;19.378;2022-08-03T00:01:43;99521.15;;;20.16;70.31
58785;BME280;44557;51.862;19.378;2022-08-03T00:02:44;99521.14;;;20.20;70.25
58785;BME280;44557;51.862;19.378;2022-08-03T00:03:46;99524.16;;;20.26;69.98
58785;BME280;44557;51.862;19.378;2022-08-03T00:04:47;99522.77;;;20.33;69.74
58785;BME280;44557;51.862;19.378;2022-08-03T00:05:49;99524.77;;;20.32;69.81
58785;BME280;44557;51.862;19.378;2022-08-03T00:06:50;99525.24;;;20.33;69.94
58785;BME280;44557;51.862;19.378;2022-08-03T00:07:52;99524.25;;;20.23;70.05
58785;BME280;44557;51.862;19.378;2022-08-03T00:08:53;99522.58;;;20.23;70.05
58785;BME280;44557;51.862;19.378;2022-08-03T00:09:55;99525.05;;;20.22;69.90
58785;BME280;44557;51.862;19.378;2022-08-03T00:10:56;99522.52;;;20.11;69.86
58785;BME280;44557;51.862;19.378;2022-08-03T00:11:58;99522.87;;;20.04;70.04
58785;BME280;44557;51.862;19.378;2022-08-03T00:12:59;99521.05;;;19.96;70.26
58785;BME280;44557;51.862;19.378;2022-08-03T00:14:02;99519.05;;;19.97;70.20
58785;BME280;44557;51.862;19.378;2022-08-03T00:15:04;99520.14;;;19.87;70.74
58785;BME280;44557;51.862;19.378;2022-08-03T00:16:06;99520.31;;;19.82;71.17
58785;BME280;44557;51.862;19.378;2022-08-03T00:17:07;99517.45;;;19.81;71.19
58785;BME280;44557;51.862;19.378;2022-08-03T00:18:09;99516.16;;;19.84;70.97
58785;BME280;44557;51.862;19.378;2022-08-03T00:19:10;99518.80;;;19.80;71.21
58785;BME280;44557;51.862;19.378;2022-08-03T00:20:12;99517.30;;;19.76;71.61
58785;BME280;44557;51.862;19.378;2022-08-03T00:21:14;99515.24;;;19.93;71.05
58785;BME280;44557;51.862;19.378;2022-08-03T00:22:15;99514.71;;;20.06;70.63
58785;BME280;44557;51.862;19.378;2022-08-03T00:23:17;99514.58;;;19.99;70.75
58785;BME280;44557;51.862;19.378;2022-08-03T00:24:18;99516.02;;;19.96;70.92
58785;BME280;44557;51.862;19.378;2022-08-03T00:25:20;99514.59;;;19.97;70.94
58785;BME280;44557;51.862;19.378;2022-08-03T00:26:22;99512.33;;;20.00;70.74
58785;BME280;44557;51.862;19.378;2022-08-03T00:27:23;99514.09;;;19.99;70.86
58785;BME280;44557;51.862;19.378;2022-08-03T00:28:25;99514.05;;;19.89;70.75
58785;BME280;44557;51.862;19.378;2022-08-03T00:29:26;99514.02;;;19.77;71.30
58785;BME280;44557;51.862;19.378;2022-08-03T00:30:28;99511.14;;;19.79;71.15
58785;BME280;44557;51.862;19.378;2022-08-03T00:31:30;99511.27;;;19.87;70.90
58785;BME280;44557;51.862;19.378;2022-08-03T00:32:31;99511.48;;;19.75;71.31
58785;BME280;44557;51.862;19.378;2022-08-03T00:33:33;99511.24;;;19.73;71.46
58785;BME280;44557;51.862;19.378;2022-08-03T00:34:34;99506.21;;;19.69;71.69
58785;BME280;44557;51.862;19.378;2022-08-03T00:35:36;99507.23;;;19.76;71.46
58785;BME280;44557;51.862;19.378;2022-08-03T00:36:37;99507.46;;;19.78;71.21
58785;BME280;44557;51.862;19.378;2022-08-03T00:37:39;99509.31;;;19.76;71.24
58785;BME280;44557;51.862;19.378;2022-08-03T00:38:41;99506.73;;;19.78;71.25
58785;BME280;44557;51.862;19.378;2022-08-03T00:39:42;99505.96;;;19.76;71.42
58785;BME280;44557;51.862;19.378;2022-08-03T00:40:46;99506.14;;;19.69;71.50
58785;BME280;44557;51.862;19.378;2022-08-03T00:41:47;99507.09;;;19.70;71.39
58785;BME280;44557;51.862;19.378;2022-08-03T00:42:57;99506.59;;;19.78;71.30
58785;BME280;44557;51.862;19.378;2022-08-03T00:43:58;99509.33;;;19.72;71.59
58785;BME280;44557;51.862;19.378;2022-08-03T00:45:00;99507.59;;;19.64;71.88
58785;BME280;44557;51.862;19.378;2022-08-03T00:46:01;99509.81;;;19.65;71.83
58785;BME280;44557;51.862;19.378;2022-08-03T00:47:03;99509.20;;;19.59;72.28
58785;BME280;44557;51.862;19.378;2022-08-03T00:48:06;99510.15;;;19.60;72.49
58785;BME280;44557;51.862;19.378;2022-08-03T00:49:08;99512.36;;;19.70;72.08
58785;BME280;44557;51.862;19.378;2022-08-03T00:50:10;99508.06;;;19.65;72.43
58785;BME280;44557;51.862;19.378;2022-08-03T00:51:11;99509.02;;;19.68;72.49
58785;BME280;44557;51.862;19.378;2022-08-03T00:52:14;99510.88;;;19.61;72.47
58785;BME280;44557;51.862;19.378;2022-08-03T00:53:16;99510.40;;;19.57;72.38
58785;BME280;44557;51.862;19.378;2022-08-03T00:54:18;99513.44;;;19.57;72.29
58785;BME280;44557;51.862;19.378;2022-08-03T00:55:21;99512.95;;;19.58;72.03
58785;BME280;44557;51.862;19.378;2022-08-03T00:56:23;99509.20;;;19.58;71.96
58785;BME280;44557;51.862;19.378;2022-08-03T00:57:24;99507.93;;;19.49;72.22
58785;BME280;44557;51.862;19.378;2022-08-03T00:58:26;99510.83;;;19.41;72.58
58785;BME280;44557;51.862;19.378;2022-08-03T00:59:28;99511.63;;;19.45;72.44
58785;BME280;44557;51.862;19.378;2022-08-03T01:00:32;99508.75;;;19.40;72.60
58785;BME280;44557;51.862;19.378;2022-08-03T01:01:33;99509.95;;;19.40;72.74
58785;BME280;44557;51.862;19.378;2022-08-03T01:02:37;99512.10;;;19.36;72.91
58785;BME280;44557;51.862;19.378;2022-08-03T01:03:39;99511.15;;;19.36;72.85
58785;BME280;44557;51.862;19.378;2022-08-03T01:04:41;99512.75;;;19.30;73.29
58785;BME280;44557;51.862;19.378;2022-08-03T01:05:57;99511.39;;;19.26;73.21
58785;BME280;44557;51.862;19.378;2022-08-03T01:09:54;99510.67;;;19.32;73.15
58785;BME280;44557;51.862;19.378;2022-08-03T01:15:20;99510.34;;;19.31;73.16
58785;BME280;44557;51.862;19.378;2022-08-03T01:16:47;99512.66;;;19.30;73.37
58785;BME280;44557;51.862;19.378;2022-08-03T01:20:33;99518.09;;;19.24;73.70
58785;BME280;44557;51.862;19.378;2022-08-03T01:27:04;99521.20;;;19.22;73.85
58785;BME280;44557;51.862;19.378;2022-08-03T01:28:32;99519.36;;;19.26;73.82
58785;BME280;44557;51.862;19.378;2022-08-03T01:29:39;99515.70;;;19.29;73.49
58785;BME280;44557;51.862;19.378;2022-08-03T01:30:47;99515.92;;;19.26;73.33
58785;BME280;44557;51.862;19.378;2022-08-03T01:32:01;99518.09;;;19.26;73.31
58785;BME280;44557;51.862;19.378;2022-08-03T01:33:08;99522.23;;;19.20;73.61
58785;BME280;44557;51.862;19.378;2022-08-03T01:34:14;99516.33;;;19.27;73.47
58785;BME280;44557;51.862;19.378;2022-08-03T01:35:41;99518.42;;;19.32;73.23
58785;BME280;44557;51.862;19.378;2022-08-03T01:36:48;99517.13;;;19.28;73.16
58785;BME280;44557;51.862;19.378;2022-08-03T01:38:03;99516.96;;;19.26;73.26
58785;BME280;44557;51.862;19.378;2022-08-03T01:39:06;99519.92;;;19.22;73.41
58785;BME280;44557;51.862;19.378;2022-08-03T01:40:11;99518.89;;;19.28;73.32
58785;BME280;44557;51.862;19.378;2022-08-03T01:41:17;99518.17;;;19.27;73.22
58785;BME280;44557;51.862;19.378;2022-08-03T01:42:20;99521.21;;;19.32;73.25
58785;BME280;44557;51.862;19.378;2022-08-03T01:43:25;99514.50;;;19.34;73.19
58785;BME280;44557;51.862;19.378;2022-08-03T01:44:30;99513.85;;;19.26;73.34
58785;BME280;44557;51.862;19.378;2022-08-03T01:45:35;99514.49;;;19.21;73.57
58785;BME280;44557;51.862;19.378;2022-08-03T01:46:38;99518.49;;;19.20;73.57
58785;BME280;44557;51.862;19.378;2022-08-03T01:47:41;99513.05;;;19.20;73.70
58785;BME280;44557;51.862;19.378;2022-08-03T01:48:46;99517.21;;;19.17;73.63
58785;BME280;44557;51.862;19.378;2022-08-03T01:49:49;99512.98;;;19.23;73.41
58785;BME280;44557;51.862;19.378;2022-08-03T01:50:53;99511.23;;;19.28;73.33
58785;BME280;44557;51.862;19.378;2022-08-03T01:51:57;99513.30;;;19.17;73.71
58785;BME280;44557;51.862;19.378;2022-08-03T01:52:59;99512.98;;;19.22;73.67
58785;BME280;44557;51.862;19.378;2022-08-03T01:54:01;99514.90;;;19.19;73.67
58785;BME280;44557;51.862;19.378;2022-08-03T01:55:05;99514.59;;;19.14;73.96
58785;BME280;44557;51.862;19.378;2022-08-03T01:56:08;99515.05;;;19.20;73.62
58785;BME280;44557;51.862;19.378;2022-08-03T01:57:10;99517.86;;;19.21;73.56
58785;BME280;44557;51.862;19.378;2022-08-03T01:58:14;99513.86;;;19.09;73.92
58785;BME280;44557;51.862;19.378;2022-08-03T01:59:18;99514.26;;;19.09;73.90
58785;BME280;44557;51.862;19.378;2022-08-03T02:00:22;99515.45;;;19.10;73.88
58785;BME280;44557;51.862;19.378;2022-08-03T02:01:24;99510.66;;;19.10;73.75
58785;BME280;44557;51.862;19.378;2022-08-03T02:02:28;99512.18;;;19.14;73.42
58785;BME280;44557;51.862;19.378;2022-08-03T02:03:36;99511.07;;;19.13;73.42
58785;BME280;44557;51.862;19.378;2022-08-03T02:04:38;99509.71;;;19.11;73.46
58785;BME280;44557;51.862;19.378;2022-08-03T02:05:44;99506.60;;;19.18;73.29
58785;BME280;44557;51.862;19.378;2022-08-03T02:06:47;99507.15;;;19.21;73.15
58785;BME280;44557;51.862;19.378;2022-08-03T02:07:49;99512.59;;;19.19;73.30
58785;BME280;44557;51.862;19.378;2022-08-03T02:08:52;99507.55;;;19.19;73.24
58785;BME280;44557;51.862;19.378;2022-08-03T02:09:56;99508.27;;;19.19;73.13
58785;BME280;44557;51.862;19.378;2022-08-03T02:10:59;99508.42;;;19.26;72.86
58785;BME280;44557;51.862;19.378;2022-08-03T02:12:03;99504.60;;;19.23;72.91
58785;BME280;44557;51.862;19.378;2022-08-03T02:13:08;99510.59;;;19.13;73.36
58785;BME280;44557;51.862;19.378;2022-08-03T02:14:11;99511.31;;;19.05;73.68
58785;BME280;44557;51.862;19.378;2022-08-03T02:15:15;99511.39;;;19.10;73.45
58785;BME280;44557;51.862;19.378;2022-08-03T02:16:17;99509.23;;;19.05;73.60
58785;BME280;44557;51.862;19.378;2022-08-03T02:17:20;99505.57;;;19.10;73.46
58785;BME280;44557;51.862;19.378;2022-08-03T02:18:24;99510.27;;;19.05;73.53
58785;BME280;44557;51.862;19.378;2022-08-03T02:19:26;99508.67;;;19.03;73.57
58785;BME280;44557;51.862;19.378;2022-08-03T02:20:29;99512.98;;;19.03;73.54
58785;BME280;44557;51.862;19.378;2022-08-03T02:21:35;99511.71;;;19.01;73.68
58785;BME280;44557;51.862;19.378;2022-08-03T02:22:41;99511.23;;;19.01;73.71
58785;BME280;44557;51.862;19.378;2022-08-03T02:23:43;99511.95;;;18.99;73.64
58785;BME280;44557;51.862;19.378;2022-08-03T02:24:45;99508.68;;;18.91;73.99
58785;BME280;44557;51.862;19.378;2022-08-03T02:25:51;99512.74;;;18.96;73.87
58785;BME280;44557;51.862;19.378;2022-08-03T02:26:54;99509.64;;;18.94;73.86
58785;BME280;44557;51.862;19.378;2022-08-03T02:28:00;99510.98;;;18.93;73.75
58785;BME280;44557;51.862;19.378;2022-08-03T02:29:10;99512.27;;;18.89;73.86
58785;BME280;44557;51.862;19.378;2022-08-03T02:30:14;99509.88;;;18.94;73.69
58785;BME280;44557;51.862;19.378;2022-08-03T02:31:18;99512.91;;;18.89;73.72
58785;BME280;44557;51.862;19.378;2022-08-03T02:32:23;99513.62;;;18.93;73.59
58785;BME280;44557;51.862;19.378;2022-08-03T02:33:33;99512.27;;;18.79;74.22
58785;BME280;44557;51.862;19.378;2022-08-03T02:34:36;99511.47;;;18.84;73.97
58785;BME280;44557;51.862;19.378;2022-08-03T02:35:41;99511.39;;;18.87;73.85
58785;BME280;44557;51.862;19.378;2022-08-03T02:36:46;99510.81;;;18.76;74.17
58785;BME280;44557;51.862;19.378;2022-08-03T02:37:55;99512.66;;;18.81;73.96
58785;BME280;44557;51.862;19.378;2022-08-03T02:38:59;99509.07;;;18.80;73.99
58785;BME280;44557;51.862;19.378;2022-08-03T02:40:03;99509.06;;;18.74;74.27
58785;BME280;44557;51.862;19.378;2022-08-03T02:41:12;99511.46;;;18.83;74.01
58785;BME280;44557;51.862;19.378;2022-08-03T02:42:17;99510.65;;;18.73;74.35
58785;BME280;44557;51.862;19.378;2022-08-03T02:43:22;99514.24;;;18.75;74.29
58785;BME280;44557;51.862;19.378;2022-08-03T02:44:25;99511.70;;;18.74;74.32
58785;BME280;44557;51.862;19.378;2022-08-03T02:45:28;99515.84;;;18.75;74.23
58785;BME280;44557;51.862;19.378;2022-08-03T02:46:32;99510.83;;;18.78;74.47
58785;BME280;44557;51.862;19.378;2022-08-03T02:47:35;99510.83;;;18.79;74.21
58785;BME280;44557;51.862;19.378;2022-08-03T02:48:40;99514.73;;;18.77;74.21
58785;BME280;44557;51.862;19.378;2022-08-03T02:49:46;99514.40;;;18.75;74.40
58785;BME280;44557;51.862;19.378;2022-08-03T02:50:53;99512.42;;;18.71;74.50
58785;BME280;44557;51.862;19.378;2022-08-03T02:51:58;99514.09;;;18.76;74.55
58785;BME280;44557;51.862;19.378;2022-08-03T02:53:01;99514.08;;;18.74;74.43
58785;BME280;44557;51.862;19.378;2022-08-03T02:54:04;99515.61;;;18.85;74.10
58785;BME280;44557;51.862;19.378;2022-08-03T02:55:08;99513.14;;;18.79;74.04
58785;BME280;44557;51.862;19.378;2022-08-03T02:56:11;99516.88;;;18.75;74.19
58785;BME280;44557;51.862;19.378;2022-08-03T02:57:14;99514.32;;;18.76;74.18
58785;BME280;44557;51.862;19.378;2022-08-03T02:58:18;99516.33;;;18.88;73.89
58785;BME280;44557;51.862;19.378;2022-08-03T02:59:23;99516.96;;;18.79;74.00
58785;BME280;44557;51.862;19.378;2022-08-03T03:00:26;99515.28;;;18.72;74.34
58785;BME280;44557;51.862;19.378;2022-08-03T03:01:29;99516.55;;;18.67;74.56
58785;BME280;44557;51.862;19.378;2022-08-03T03:02:30;99516.02;;;18.86;73.96
58785;BME280;44557;51.862;19.378;2022-08-03T03:03:34;99516.24;;;18.80;74.00
58785;BME280;44557;51.862;19.378;2022-08-03T03:04:36;99516.09;;;18.78;74.04
58785;BME280;44557;51.862;19.378;2022-08-03T03:05:39;99522.39;;;18.77;74.14
58785;BME280;44557;51.862;19.378;2022-08-03T03:06:42;99522.63;;;18.75;74.31
58785;BME280;44557;51.862;19.378;2022-08-03T03:07:45;99521.19;;;18.71;74.51
58785;BME280;44557;51.862;19.378;2022-08-03T03:08:47;99519.34;;;18.69;74.65
58785;BME280;44557;51.862;19.378;2022-08-03T03:09:49;99520.30;;;18.75;74.29
58785;BME280;44557;51.862;19.378;2022-08-03T03:10:51;99519.36;;;18.77;74.22
58785;BME280;44557;51.862;19.378;2022-08-03T03:11:54;99516.55;;;18.81;74.08
58785;BME280;44557;51.862;19.378;2022-08-03T03:12:57;99514.73;;;18.72;74.50
58785;BME280;44557;51.862;19.378;2022-08-03T03:14:00;99516.48;;;18.68;74.77
58785;BME280;44557;51.862;19.378;2022-08-03T03:15:06;99517.83;;;18.66;74.84
58785;BME280;44557;51.862;19.378;2022-08-03T03:16:08;99516.23;;;18.63;74.94
58785;BME280;44557;51.862;19.378;2022-08-03T03:17:13;99519.27;;;18.70;74.69
58785;BME280;44557;51.862;19.378;2022-08-03T03:18:16;99517.59;;;18.72;74.66
58785;BME280;44557;51.862;19.378;2022-08-03T03:19:18;99516.00;;;18.72;74.76
58785;BME280;44557;51.862;19.378;2022-08-03T03:20:21;99519.11;;;18.74;74.49
58785;BME280;44557;51.862;19.378;2022-08-03T03:21:24;99517.98;;;18.65;74.89
58785;BME280;44557;51.862;19.378;2022-08-03T03:22:27;99514.39;;;18.68;74.83
58785;BME280;44557;51.862;19.378;2022-08-03T03:23:31;99516.71;;;18.72;74.63
58785;BME280;44557;51.862;19.378;2022-08-03T03:24:36;99516.95;;;18.65;74.77
58785;BME280;44557;51.862;19.378;2022-08-03T03:25:38;99516.70;;;18.60;74.88
58785;BME280;44557;51.862;19.378;2022-08-03T03:26:41;99515.83;;;18.63;74.93
58785;BME280;44557;51.862;19.378;2022-08-03T03:27:43;99513.92;;;18.67;74.55
58785;BME280;44557;51.862;19.378;2022-08-03T03:28:45;99516.14;;;18.60;74.86
58785;BME280;44557;51.862;19.378;2022-08-03T03:29:48;99514.15;;;18.58;75.08
58785;BME280;44557;51.862;19.378;2022-08-03T03:30:50;99515.35;;;18.59;74.90
58785;BME280;44557;51.862;19.378;2022-08-03T03:31:52;99511.99;;;18.56;75.05
58785;BME280;44557;51.862;19.378;2022-08-03T03:32:54;99516.38;;;18.57;75.16
58785;BME280;44557;51.862;19.378;2022-08-03T03:33:59;99513.52;;;18.58;74.98
58785;BME280;44557;51.862;19.378;2022-08-03T03:35:01;99516.21;;;18.61;74.93
58785;BME280;44557;51.862;19.378;2022-08-03T03:36:06;99513.20;;;18.55;75.23
58785;BME280;44557;51.862;19.378;2022-08-03T03:37:08;99513.77;;;18.62;74.77
58785;BME280;44557;51.862;19.378;2022-08-03T03:38:10;99515.99;;;18.61;74.81
58785;BME280;44557;51.862;19.378;2022-08-03T03:39:11;99516.38;;;18.62;74.87
58785;BME280;44557;51.862;19.378;2022-08-03T03:40:13;99518.95;;;18.67;74.51
58785;BME280;44557;51.862;19.378;2022-08-03T03:41:15;99520.21;;;18.66;74.66
58785;BME280;44557;51.862;19.378;2022-08-03T03:42:17;99519.83;;;18.70;74.55
58785;BME280;44557;51.862;19.378;2022-08-03T03:43:19;99519.42;;;18.66;74.66
58785;BME280;44557;51.862;19.378;2022-08-03T03:44:20;99519.10;;;18.68;74.66
58785;BME280;44557;51.862;19.378;2022-08-03T03:45:22;99520.70;;;18.66;74.78
58785;BME280;44557;51.862;19.378;2022-08-03T03:46:24;99521.27;;;18.68;74.39
58785;BME280;44557;51.862;19.378;2022-08-03T03:47:27;99520.94;;;18.72;74.43
58785;BME280;44557;51.862;19.378;2022-08-03T03:48:29;99522.39;;;18.76;74.26
58785;BME280;44557;51.862;19.378;2022-08-03T03:49:31;99525.25;;;18.72;74.40
58785;BME280;44557;51.862;19.378;2022-08-03T03:50:34;99524.92;;;18.69;74.19
58785;BME280;44557;51.862;19.378;2022-08-03T03:51:36;99527.23;;;18.69;74.19
58785;BME280;44557;51.862;19.378;2022-08-03T03:52:38;99526.20;;;18.68;74.12
58785;BME280;44557;51.862;19.378;2022-08-03T03:53:39;99528.40;;;18.50;75.07
58785;BME280;44557;51.862;19.378;2022-08-03T03:54:43;99528.09;;;18.53;75.21
58785;BME280;44557;51.862;19.378;2022-08-03T03:55:45;99524.92;;;18.65;74.82
58785;BME280;44557;51.862;19.378;2022-08-03T03:56:47;99528.19;;;18.61;74.80
58785;BME280;44557;51.862;19.378;2022-08-03T03:57:48;99524.84;;;18.67;74.65
58785;BME280;44557;51.862;19.378;2022-08-03T03:58:50;99527.40;;;18.75;74.47
58785;BME280;44557;51.862;19.378;2022-08-03T03:59:52;99528.13;;;18.79;74.18
58785;BME280;44557;51.862;19.378;2022-08-03T04:00:53;99528.53;;;18.81;74.16
58785;BME280;44557;51.862;19.378;2022-08-03T04:01:55;99531.55;;;18.75;74.48
58785;BME280;44557;51.862;19.378;2022-08-03T04:02:57;99529.50;;;18.86;74.20
58785;BME280;44557;51.862;19.378;2022-08-03T04:03:58;99531.25;;;18.90;74.09
58785;BME280;44557;51.862;19.378;2022-08-03T04:05:20;99535.16;;;18.95;73.96
58785;BME280;44557;51.862;19.378;2022-08-03T04:06:40;99534.29;;;18.98;73.86
58785;BME280;44557;51.862;19.378;2022-08-03T04:08:16;99535.96;;;18.99;73.93
58785;BME280;44557;51.862;19.378;2022-08-03T04:09:38;99539.55;;;19.00;74.17
58785;BME280;44557;51.862;19.378;2022-08-03T04:11:17;99541.31;;;19.06;74.30
58785;BME280;44557;51.862;19.378;2022-08-03T04:12:21;99538.99;;;19.10;73.99
58785;BME280;44557;51.862;19.378;2022-08-03T04:13:35;99542.98;;;19.05;74.60
58785;BME280;44557;51.862;19.378;2022-08-03T04:14:38;99543.54;;;19.07;74.27
58785;BME280;44557;51.862;19.378;2022-08-03T04:15:41;99544.59;;;19.11;73.96
58785;BME280;44557;51.862;19.378;2022-08-03T04:16:49;99545.06;;;19.26;73.44
58785;BME280;44557;51.862;19.378;2022-08-03T04:17:52;99546.73;;;19.24;73.56
58785;BME280;44557;51.862;19.378;2022-08-03T04:19:02;99543.62;;;19.28;73.27
58785;BME280;44557;51.862;19.378;2022-08-03T04:20:05;99545.79;;;19.25;73.43
58785;BME280;44557;51.862;19.378;2022-08-03T04:21:10;99544.66;;;19.22;73.62
58785;BME280;44557;51.862;19.378;2022-08-03T04:22:16;99543.30;;;19.26;73.45
58785;BME280;44557;51.862;19.378;2022-08-03T04:23:21;99544.10;;;19.20;73.66
58785;BME280;44557;51.862;19.378;2022-08-03T04:24:49;99546.34;;;19.22;73.71
58785;BME280;44557;51.862;19.378;2022-08-03T04:25:50;99544.42;;;19.28;73.49
58785;BME280;44557;51.862;19.378;2022-08-03T04:26:54;99545.55;;;19.29;73.52
58785;BME280;44557;51.862;19.378;2022-08-03T04:28:02;99548.41;;;19.24;73.83
58785;BME280;44557;51.862;19.378;2022-08-03T04:29:05;99546.34;;;19.27;73.87
58785;BME280;44557;51.862;19.378;2022-08-03T04:30:07;99547.14;;;19.33;73.54
58785;BME280;44557;51.862;19.378;2022-08-03T04:31:12;99548.25;;;19.31;73.55
58785;BME280;44557;51.862;19.378;2022-08-03T04:32:15;99554.98;;;19.36;73.48
58785;BME280;44557;51.862;19.378;2022-08-03T04:33:17;99554.00;;;19.29;73.89
58785;BME280;44557;51.862;19.378;2022-08-03T04:34:19;99556.09;;;19.38;73.49
58785;BME280;44557;51.862;19.378;2022-08-03T04:35:23;99553.06;;;19.40;73.16
58785;BME280;44557;51.862;19.378;2022-08-03T04:36:26;99556.98;;;19.39;73.34
58785;BME280;44557;51.862;19.378;2022-08-03T04:37:38;99559.84;;;19.40;73.44
58785;BME280;44557;51.862;19.378;2022-08-03T04:38:59;99557.05;;;19.35;73.84
58785;BME280;44557;51.862;19.378;2022-08-03T04:40:06;99559.52;;;19.46;73.39
58785;BME280;44557;51.862;19.378;2022-08-03T04:41:08;99560.16;;;19.45;73.45
58785;BME280;44557;51.862;19.378;2022-08-03T04:42:12;99562.71;;;19.44;73.36
58785;BME280;44557;51.862;19.378;2022-08-03T04:43:15;99561.67;;;19.48;73.22
58785;BME280;44557;51.862;19.378;2022-08-03T04:44:20;99562.16;;;19.41;73.63
58785;BME280;44557;51.862;19.378;2022-08-03T04:45:24;99560.95;;;19.45;73.25
58785;BME280;44557;51.862;19.378;2022-08-03T04:46:31;99565.58;;;19.52;72.86
58785;BME280;44557;51.862;19.378;2022-08-03T04:47:35;99564.14;;;19.54;72.95
58785;BME280;44557;51.862;19.378;2022-08-03T04:48:38;99563.50;;;19.58;72.73
58785;BME280;44557;51.862;19.378;2022-08-03T04:49:40;99564.92;;;19.66;72.55
58785;BME280;44557;51.862;19.378;2022-08-03T04:50:42;99564.69;;;19.63;72.74
58785;BME280;44557;51.862;19.378;2022-08-03T04:51:44;99564.68;;;19.69;72.19
58785;BME280;44557;51.862;19.378;2022-08-03T04:52:45;99566.83;;;19.70;72.33
58785;BME280;44557;51.862;19.378;2022-08-03T04:53:47;99565.31;;;19.75;72.30
58785;BME280;44557;51.862;19.378;2022-08-03T04:54:48;99566.74;;;19.75;72.22
58785;BME280;44557;51.862;19.378;2022-08-03T04:55:50;99567.38;;;19.73;72.24
58785;BME280;44557;51.862;19.378;2022-08-03T04:56:51;99567.30;;;19.72;72.25
58785;BME280;44557;51.862;19.378;2022-08-03T04:57:53;99565.22;;;19.76;72.19
58785;BME280;44557;51.862;19.378;2022-08-03T04:58:54;99564.02;;;19.84;72.02
58785;BME280;44557;51.862;19.378;2022-08-03T04:59:56;99564.06;;;19.92;71.65
58785;BME280;44557;51.862;19.378;2022-08-03T05:00:58;99564.20;;;19.98;71.58
58785;BME280;44557;51.862;19.378;2022-08-03T05:02:00;99565.72;;;19.99;71.52
58785;BME280;44557;51.862;19.378;2022-08-03T05:03:02;99567.02;;;19.92;71.58
58785;BME280;44557;51.862;19.378;2022-08-03T05:04:04;99564.06;;;19.88;71.69
58785;BME280;44557;51.862;19.378;2022-08-03T05:05:05;99566.33;;;19.82;71.61
58785;BME280;44557;51.862;19.378;2022-08-03T05:06:07;99562.63;;;19.93;71.31
58785;BME280;44557;51.862;19.378;2022-08-03T05:07:10;99569.02;;;19.91;71.37
58785;BME280;44557;51.862;19.378;2022-08-03T05:08:12;99568.08;;;19.84;71.85
58785;BME280;44557;51.862;19.378;2022-08-03T05:09:13;99572.95;;;19.82;72.10
58785;BME280;44557;51.862;19.378;2022-08-03T05:10:15;99567.92;;;19.82;71.91
58785;BME280;44557;51.862;19.378;2022-08-03T05:11:17;99569.52;;;19.86;72.00
58785;BME280;44557;51.862;19.378;2022-08-03T05:12:19;99567.67;;;19.89;71.78
58785;BME280;44557;51.862;19.378;2022-08-03T05:13:20;99566.00;;;19.86;72.05
58785;BME280;44557;51.862;19.378;2022-08-03T05:14:22;99570.94;;;19.91;72.01
58785;BME280;44557;51.862;19.378;2022-08-03T05:15:24;99569.11;;;19.85;71.90
58785;BME280;44557;51.862;19.378;2022-08-03T05:16:25;99567.12;;;19.86;71.94
58785;BME280;44557;51.862;19.378;2022-08-03T05:17:27;99573.77;;;19.77;72.38
58785;BME280;44557;51.862;19.378;2022-08-03T05:18:29;99574.65;;;19.78;72.51
58785;BME280;44557;51.862;19.378;2022-08-03T05:19:31;99572.80;;;19.84;72.17
58785;BME280;44557;51.862;19.378;2022-08-03T05:20:32;99574.23;;;19.85;72.25
58785;BME280;44557;51.862;19.378;2022-08-03T05:21:34;99577.11;;;19.81;72.47
58785;BME280;44557;51.862;19.378;2022-08-03T05:22:35;99573.20;;;19.82;72.43
58785;BME280;44557;51.862;19.378;2022-08-03T05:23:37;99573.35;;;19.86;72.25
58785;BME280;44557;51.862;19.378;2022-08-03T05:24:40;99574.00;;;19.81;72.60
58785;BME280;44557;51.862;19.378;2022-08-03T05:25:41;99573.42;;;19.88;72.40
58785;BME280;44557;51.862;19.378;2022-08-03T05:26:43;99575.20;;;19.86;72.47
58785;BME280;44557;51.862;19.378;2022-08-03T05:27:44;99577.04;;;19.84;72.66
58785;BME280;44557;51.862;19.378;2022-08-03T05:28:46;99576.60;;;19.91;72.48
58785;BME280;44557;51.862;19.378;2022-08-03T05:29:48;99577.47;;;19.98;71.96
58785;BME280;44557;51.862;19.378;2022-08-03T05:30:50;99579.92;;;20.03;71.86
58785;BME280;44557;51.862;19.378;2022-08-03T05:31:52;99576.98;;;19.99;72.32
58785;BME280;44557;51.862;19.378;2022-08-03T05:32:53;99581.92;;;20.02;72.21
58785;BME280;44557;51.862;19.378;2022-08-03T05:33:55;99581.98;;;20.08;71.99
58785;BME280;44557;51.862;19.378;2022-08-03T05:34:57;99582.55;;;20.08;71.94
58785;BME280;44557;51.862;19.378;2022-08-03T05:35:59;99579.85;;;20.03;72.21
58785;BME280;44557;51.862;19.378;2022-08-03T05:37:00;99578.08;;;20.06;72.09
58785;BME280;44557;51.862;19.378;2022-08-03T05:38:02;99584.13;;;20.14;71.98
58785;BME280;44557;51.862;19.378;2022-08-03T05:39:04;99584.36;;;20.17;71.76
58785;BME280;44557;51.862;19.378;2022-08-03T05:40:06;99581.70;;;20.31;71.30
58785;BME280;44557;51.862;19.378;2022-08-03T05:41:12;99580.35;;;20.25;71.72
58785;BME280;44557;51.862;19.378;2022-08-03T05:42:14;99578.95;;;20.37;71.55
58785;BME280;44557;51.862;19.378;2022-08-03T05:43:16;99580.02;;;20.48;71.15
58785;BME280;44557;51.862;19.378;2022-08-03T05:44:17;99579.79;;;20.60;70.67
58785;BME280;44557;51.862;19.378;2022-08-03T05:45:19;99578.88;;;20.68;70.61
58785;BME280;44557;51.862;19.378;2022-08-03T05:46:23;99581.00;;;20.74;70.65
58785;BME280;44557;51.862;19.378;2022-08-03T05:47:25;99581.39;;;20.87;70.11
58785;BME280;44557;51.862;19.378;2022-08-03T05:48:26;99581.86;;;20.89;69.89
58785;BME280;44557;51.862;19.378;2022-08-03T05:49:29;99580.60;;;20.98;69.80